Language selection

My Weather Profile Weather Topics  | 

Western Lake Ontario: Past 24 Hour Conditions

 

Georgian Bay - 45137

09:00 PM EDT 08 August 2022Buoy position: 45.55N 81.0W
Disclaimer

This table is a summary of hourly weather conditions for the past 24 hours.
Please note that these observations might not always be representative of weather conditions over their associated marine area.

Date / Time
(EDT)
Wind(knots) Wave height(m) Wave period(s) Pressure(kPa) Air tempC) Water tempC)
08 August 2022
21:00 N 19 gust 23 1.0 4.4 101.1 17 19
20:00 N 19 gust 23 1.0 4.4 101.0 18 19
19:00 NNE 17 gust 20 0.8 4.3 100.9 18 19
18:00 NNE 19 gust 23 0.8 3.9 100.9 17 19
17:00 NNE 18 gust 21 0.6 3.3 100.8 17 19
16:00 NNE 12 gust 13 0.4 3.0 100.9 18 19
15:00 ENE 11 gust 12 0.3 2.9 100.9 18 19
14:00 ENE 9 gust 11 0.3 2.6 101.0 18 19
13:00 NNE 9 gust 11 0.2 2.7 101.1 17 19
12:00 NNE 5 gust 7 0.3 2.7 101.1 17 19
11:00 NNE 5 gust 7 0.3 3.0 101.2 17 19
10:00 NNE 6 gust 8 0.4 3.1 101.2 16 19
9:00 NE 7 gust 9 0.4 3.3 101.3 17 19
8:00 NE 11 gust 13 0.5 3.4 101.3 17 19
7:00 NE 10 gust 11 0.5 3.4 101.3 17 19
6:00 NE 11 gust 13 0.5 3.8 101.3 17 19
5:00 NE 12 gust 15 0.6 4.0 101.3 17 19
4:00 NE 12 gust 15 0.7 3.9 101.4 17 19
3:00 NE 14 gust 16 0.7 4.2 101.4 17 19
2:00 NE 17 gust 19 0.8 4.0 101.5 17 19
1:00 NE 16 gust 18 0.8 3.6 101.5 17 19
0:00 NE 15 gust 17 0.8 4.3 101.5 17 19
07 August 2022
23:00 NE 16 gust 19 0.9 4.3 101.6 17 19
22:00 NE 19 gust 23 0.9 4.1 101.5 17 19
21:00 NE 18 gust 22 0.9 3.9 101.5 18 19

Zoom-in to make a selection

Map of Great Lakes - Lake Huron marine weather areas N Huron - 45003 W Erie - 45005 S Huron - 45008 Lake Ontario - 45012 Port Stanley - 45132 Prince Edward Point - 45135 Georgian Bay - 45137 Grimsby - 45139 Port Colborne - 45142 South Georgian Bay - 45143 Lake St Clair - 45147 South Lake Huron - 45149 Lake Simcoe - 45151 Lake Nipissing - 45152 North Channel - 45154 Ajax - 45159 Sault Ste. Marie Airport Killarney Greater Sudbury Airport North Bay Airport Gore Bay-Manitoulin Airport Great Duck Island Brockville Grenadier Island Kingston Airport Collingwood Lagoon City Muskoka Airport Parry Sound Harbour Lake Simcoe Regional Airport Wiarton Airport Western Islands Cove Island Goderich Sarnia Chris Hadfield Airport Tobermory Harrow AAFC Long Point Port Weller St. Catharines / Niagara District Airport Southeast Shoal Vineland Station Welland-Pelham Windsor Airport Port Colborne Erieau Point Pelee Burlington Lift Bridge Cobourg Hamilton Munro Int'l Airport Oshawa Executive Airport Point Petre Toronto City Centre Airport CFB Trenton Peterborough Municipal Airport
Legend:
buoy Buoy
land station Land Station

Great Lakes - Lake Huron Area

Another Region

What we are doing

Features

WeatherCAN app: set custom notifications

Learn how to set custom Air Quality Health Index notifications on the WeatherCAN app

Are you prepared for summer severe weather?

We have information to help you stay safe

Date modified: